Time;durP1;ratioP1;P1;durP2;ratioP2;P2;SDS_P1;SDS_P2;PMS_P1;PMS_P2;Temp;Humidity;BMP_temperature;BMP_pressure;BME280_temperature;BME280_humidity;BME280_pressure;Samples;Min_cycle;Max_cycle;Signal;HPM_P1;HPM_P2
2022/08/17 00:01:24;;;;;;;;;;;25.60;55.50;;;;;;5060017;28;20011;-79
2022/08/17 00:03:51;;;;;;;;;;;25.60;55.70;;;;;;5061311;28;20384;-79
2022/08/17 00:06:19;;;;;;;;;;;25.60;55.70;;;;;;5059299;28;20004;-78
2022/08/17 00:08:47;;;;;;;;;;;25.60;55.80;;;;;;5063349;28;20023;-79
2022/08/17 00:11:15;;;;;;;;;;;25.60;55.90;;;;;;5062033;28;19986;-79
2022/08/17 00:13:44;;;;;;;;;;;25.60;56.00;;;;;;5062409;28;19987;-79
2022/08/17 00:16:13;;;;;;;;;;;25.60;56.10;;;;;;5063592;28;20023;-79
2022/08/17 00:18:40;;;;;;;;;;;25.60;56.10;;;;;;5059845;28;20011;-79
2022/08/17 00:21:08;;;;;;;;;;;25.60;56.20;;;;;;5059871;28;19921;-79
2022/08/17 00:23:35;;;;;;;;;;;25.60;56.40;;;;;;5060892;28;20010;-79
2022/08/17 00:26:02;;;;;;;;;;;25.60;56.40;;;;;;5060408;28;20008;-79
2022/08/17 00:28:28;;;;;;;;;;;25.60;56.40;;;;;;5061466;28;20007;-79
2022/08/17 00:30:55;;;;;;;;;;;25.60;56.40;;;;;;5061376;28;20012;-79
2022/08/17 00:33:24;;;;;;;;;;;25.60;56.40;;;;;;5059508;28;20007;-80
2022/08/17 00:35:51;;;;;;;;;;;25.60;56.40;;;;;;5058958;28;20320;-80
2022/08/17 00:38:18;;;;;;;;;;;25.60;56.40;;;;;;5060166;28;20003;-79
2022/08/17 00:40:46;;;;;;;;;;;25.60;56.40;;;;;;5059508;28;20348;-79
2022/08/17 00:43:14;;;;;;;;;;;25.60;56.40;;;;;;5059030;28;20036;-78
2022/08/17 00:45:41;;;;;;;;;;;25.60;56.40;;;;;;5059632;28;19992;-78
2022/08/17 00:48:08;;;;;;;;;;;25.60;56.40;;;;;;5059066;28;19927;-78
2022/08/17 00:50:36;;;;;;;;;;;25.60;57.00;;;;;;5058698;28;20019;-79
2022/08/17 00:53:03;;;;;;;;;;;25.60;56.40;;;;;;5058414;28;19988;-79
2022/08/17 00:55:31;;;;;;;;;;;25.60;56.40;;;;;;5060551;28;20011;-79
2022/08/17 00:57:59;;;;;;;;;;;25.60;56.40;;;;;;5059734;28;19947;-79
2022/08/17 01:00:29;;;;;;;;;;;25.60;56.40;;;;;;5059817;28;20011;-79
2022/08/17 01:02:57;;;;;;;;;;;25.60;56.40;;;;;;5060175;28;19921;-79
2022/08/17 01:05:25;;;;;;;;;;;25.60;56.40;;;;;;5060307;28;19927;-79
2022/08/17 01:07:53;;;;;;;;;;;25.60;56.40;;;;;;5060178;28;20027;-79
2022/08/17 01:10:22;;;;;;;;;;;25.60;56.50;;;;;;5060127;28;20081;-79
2022/08/17 01:12:49;;;;;;;;;;;25.60;56.50;;;;;;5060377;28;20006;-79
2022/08/17 01:15:16;;;;;;;;;;;25.60;56.50;;;;;;5057103;28;19920;-79
2022/08/17 01:17:44;;;;;;;;;;;25.60;56.60;;;;;;5056745;28;20012;-79
2022/08/17 01:20:11;;;;;;;;;;;25.60;56.60;;;;;;5056792;28;20023;-80
2022/08/17 01:22:39;;;;;;;;;;;25.60;56.70;;;;;;5055992;28;20087;-79
2022/08/17 01:25:07;;;;;;;;;;;25.60;56.70;;;;;;5056520;28;20023;-79
2022/08/17 01:27:35;;;;;;;;;;;25.60;56.80;;;;;;5056070;28;20343;-79
2022/08/17 01:30:06;;;;;;;;;;;25.60;56.80;;;;;;5056397;28;20011;-78
2022/08/17 01:32:33;;;;;;;;;;;25.60;56.80;;;;;;5056591;28;20023;-79
2022/08/17 01:35:00;;;;;;;;;;;25.60;56.80;;;;;;5056177;28;20015;-79
2022/08/17 01:37:28;;;;;;;;;;;25.60;56.90;;;;;;5056201;28;19921;-79
2022/08/17 01:39:59;;;;;;;;;;;25.60;56.90;;;;;;5056826;28;20343;-79
2022/08/17 01:42:29;;;;;;;;;;;25.60;56.90;;;;;;5056225;28;19928;-79
2022/08/17 01:44:57;;;;;;;;;;;25.60;56.90;;;;;;5056507;28;20015;-79
2022/08/17 01:47:24;;;;;;;;;;;25.60;56.90;;;;;;5059193;28;19928;-79
2022/08/17 01:49:51;;;;;;;;;;;25.60;57.00;;;;;;5060816;28;20439;-79
2022/08/17 01:52:17;;;;;;;;;;;25.60;57.00;;;;;;5060202;28;19921;-79
2022/08/17 01:54:46;;;;;;;;;;;25.60;57.00;;;;;;5062954;28;19979;-79
2022/08/17 01:57:14;;;;;;;;;;;25.60;57.10;;;;;;5060631;28;20342;-79
2022/08/17 01:59:41;;;;;;;;;;;25.60;57.10;;;;;;5062013;28;20011;-79
2022/08/17 02:02:08;;;;;;;;;;;25.60;57.20;;;;;;5075198;22;19928;-80
2022/08/17 02:04:35;;;;;;;;;;;25.60;57.20;;;;;;5042340;28;19968;-80
2022/08/17 02:07:02;;;;;;;;;;;25.60;57.20;;;;;;5040913;28;19921;-80
2022/08/17 02:09:29;;;;;;;;;;;25.60;57.30;;;;;;5040844;28;20011;-80
2022/08/17 02:11:56;;;;;;;;;;;25.60;57.30;;;;;;5040641;28;19928;-80
2022/08/17 02:14:25;;;;;;;;;;;25.60;57.40;;;;;;5040463;28;20295;-80
2022/08/17 02:16:52;;;;;;;;;;;25.60;57.40;;;;;;5041161;28;19931;-80
2022/08/17 02:19:19;;;;;;;;;;;25.60;57.50;;;;;;5041178;28;19976;-80
2022/08/17 05:20:27;;;;;;;;;;;25.50;59.90;;;;;;5752059;22;19947;-78
2022/08/17 05:22:54;;;;;;;;;;;25.50;59.90;;;;;;5034547;28;19921;-78
2022/08/17 05:25:22;;;;;;;;;;;25.50;60.00;;;;;;5034915;28;20015;-77
2022/08/17 05:27:49;;;;;;;;;;;25.50;60.00;;;;;;5035175;28;19967;-78
2022/08/17 05:30:16;;;;;;;;;;;25.50;60.00;;;;;;5034377;28;19960;-77
2022/08/17 05:32:50;;;;;;;;;;;25.50;60.10;;;;;;5058664;23;19971;-82
2022/08/17 05:35:16;;;;;;;;;;;25.50;60.10;;;;;;5042609;28;20007;-82
2022/08/17 05:37:44;;;;;;;;;;;25.50;60.20;;;;;;5039550;28;20008;-81
2022/08/17 05:40:12;;;;;;;;;;;25.50;60.30;;;;;;5039129;28;20015;-81
2022/08/17 05:42:38;;;;;;;;;;;25.50;60.30;;;;;;5040155;28;19977;-82
2022/08/17 05:45:05;;;;;;;;;;;25.50;60.40;;;;;;5040407;28;20016;-82
2022/08/17 05:47:32;;;;;;;;;;;25.50;60.40;;;;;;5039540;28;19932;-84
2022/08/17 05:50:00;;;;;;;;;;;25.50;61.30;;;;;;5040047;28;19984;-83
2022/08/17 06:57:14;;;;;;;;;;;25.50;62.10;;;;;;5739427;22;19921;-84
2022/08/17 06:59:46;;;;;;;;;;;25.50;62.10;;;;;;5036273;28;20352;-84
2022/08/17 07:02:15;;;;;;;;;;;25.50;62.20;;;;;;5036358;28;19985;-84
2022/08/17 07:04:42;;;;;;;;;;;25.50;62.30;;;;;;5037115;28;19968;-84
2022/08/17 07:09:51;;;;;;;;;;;25.50;62.50;;;;;;5036809;28;19917;-84
2022/08/17 07:12:22;;;;;;;;;;;25.50;62.60;;;;;;5039136;28;20012;-80
2022/08/17 07:14:50;;;;;;;;;;;25.50;62.70;;;;;;5039235;28;19928;-80
2022/08/17 07:17:18;;;;;;;;;;;25.50;62.80;;;;;;5038915;28;19925;-80
2022/08/17 07:19:45;;;;;;;;;;;25.50;62.90;;;;;;5037259;28;19921;-80
2022/08/17 07:22:16;;;;;;;;;;;25.60;62.90;;;;;;5037046;28;20015;-82
2022/08/17 07:24:46;;;;;;;;;;;25.50;63.00;;;;;;5036583;28;19920;-82
2022/08/17 07:27:14;;;;;;;;;;;25.50;63.00;;;;;;5038074;28;20012;-82
2022/08/17 07:29:45;;;;;;;;;;;25.50;63.00;;;;;;5038402;28;20007;-79
2022/08/17 07:32:14;;;;;;;;;;;25.50;63.00;;;;;;5038634;28;19975;-80
2022/08/17 07:35:00;;;;;;;;;;;25.50;63.00;;;;;;5039709;28;19925;-80
2022/08/17 07:37:28;;;;;;;;;;;25.50;62.90;;;;;;5040657;28;20019;-80
2022/08/17 07:39:55;;;;;;;;;;;25.50;62.70;;;;;;5050425;28;19921;-80
2022/08/17 07:42:22;;;;;;;;;;;25.50;62.60;;;;;;5049200;28;19928;-80
2022/08/17 07:44:52;;;;;;;;;;;25.40;62.30;;;;;;5050340;28;19976;-79
2022/08/17 07:50:24;;;;;;;;;;;25.40;61.90;;;;;;5049682;28;19967;-79
2022/08/17 07:52:50;;;;;;;;;;;25.40;61.70;;;;;;5050453;28;19928;-79
2022/08/17 07:55:28;;;;;;;;;;;25.40;61.30;;;;;;5047917;28;20023;-79
2022/08/17 07:57:56;;;;;;;;;;;25.30;61.30;;;;;;5046477;28;20012;-80
2022/08/17 08:00:25;;;;;;;;;;;25.30;61.20;;;;;;5046635;28;20343;-79
2022/08/17 08:03:00;;;;;;;;;;;25.30;61.20;;;;;;5045725;28;19920;-79
2022/08/17 08:05:27;;;;;;;;;;;25.30;61.20;;;;;;5046091;28;19924;-80
2022/08/17 08:07:55;;;;;;;;;;;25.30;60.90;;;;;;5044853;28;19921;-79
2022/08/17 08:10:27;;;;;;;;;;;25.30;60.70;;;;;;5042650;28;20344;-79
2022/08/17 08:13:03;;;;;;;;;;;25.30;60.40;;;;;;5042427;28;19980;-79
2022/08/17 08:15:35;;;;;;;;;;;25.30;60.10;;;;;;5043856;28;19992;-79
2022/08/17 08:18:02;;;;;;;;;;;25.30;59.90;;;;;;5042481;28;20033;-79
2022/08/17 08:20:32;;;;;;;;;;;25.30;59.70;;;;;;5042611;28;19920;-79
2022/08/17 08:23:02;;;;;;;;;;;25.30;59.50;;;;;;5042242;28;20015;-79
2022/08/17 08:25:36;;;;;;;;;;;25.30;59.40;;;;;;5043085;28;19948;-79
2022/08/17 08:28:07;;;;;;;;;;;25.30;59.30;;;;;;5040722;28;19975;-80
2022/08/17 08:30:41;;;;;;;;;;;25.30;59.10;;;;;;5041435;28;19921;-80
2022/08/17 08:33:17;;;;;;;;;;;25.30;59.00;;;;;;5042106;28;19924;-79
2022/08/17 08:35:49;;;;;;;;;;;25.30;59.50;;;;;;5043160;28;19921;-80
2022/08/17 08:38:22;;;;;;;;;;;25.30;58.80;;;;;;5043149;28;19973;-80
2022/08/17 08:41:00;;;;;;;;;;;25.30;58.60;;;;;;5042631;28;19921;-79
2022/08/17 08:43:31;;;;;;;;;;;25.30;58.50;;;;;;5042688;28;19964;-79
2022/08/17 08:46:03;;;;;;;;;;;25.30;58.40;;;;;;5039856;28;19975;-79
2022/08/17 08:48:38;;;;;;;;;;;25.30;58.20;;;;;;5042070;28;20020;-79
2022/08/17 08:51:09;;;;;;;;;;;25.30;58.10;;;;;;5037690;28;20023;-78
2022/08/17 08:53:43;;;;;;;;;;;25.30;57.80;;;;;;5045982;28;19980;-81
2022/08/17 08:56:12;;;;;;;;;;;25.30;57.70;;;;;;5047069;28;19921;-81
2022/08/17 08:58:43;;;;;;;;;;;25.30;57.50;;;;;;5047414;28;19949;-79
2022/08/17 09:01:18;;;;;;;;;;;25.30;57.40;;;;;;5040887;28;20015;-81
2022/08/17 09:03:58;;;;;;;;;;;25.30;57.30;;;;;;5040003;28;19980;-82
2022/08/17 09:06:35;;;;;;;;;;;25.30;57.10;;;;;;5039690;28;19928;-84
2022/08/17 09:09:07;;;;;;;;;;;25.30;57.00;;;;;;5039685;28;19988;-82
2022/08/17 09:11:39;;;;;;;;;;;25.40;56.90;;;;;;5039354;28;20023;-81
2022/08/17 09:14:11;;;;;;;;;;;25.30;56.70;;;;;;5040310;28;19952;-82
2022/08/17 09:16:42;;;;;;;;;;;25.40;56.60;;;;;;5038922;28;19948;-79
2022/08/17 09:19:11;;;;;;;;;;;25.40;56.40;;;;;;5037604;28;20027;-81
2022/08/17 09:21:40;;;;;;;;;;;25.40;56.20;;;;;;5035668;28;20004;-81
2022/08/17 09:24:11;;;;;;;;;;;25.40;56.20;;;;;;5037211;28;20016;-81
2022/08/17 09:26:42;;;;;;;;;;;25.40;56.20;;;;;;5036677;28;19921;-81
2022/08/17 09:29:15;;;;;;;;;;;25.40;56.20;;;;;;5038555;28;20016;-81
2022/08/17 09:31:46;;;;;;;;;;;25.40;56.30;;;;;;5039328;28;20012;-81
2022/08/17 09:34:15;;;;;;;;;;;25.40;56.20;;;;;;5039386;28;19957;-81
2022/08/17 09:36:49;;;;;;;;;;;25.40;56.10;;;;;;5038661;28;19984;-81
2022/08/17 09:39:19;;;;;;;;;;;25.40;55.90;;;;;;5039654;28;19921;-81
2022/08/17 09:41:48;;;;;;;;;;;25.40;55.70;;;;;;5038322;28;20015;-80
2022/08/17 09:44:20;;;;;;;;;;;25.40;55.70;;;;;;5038495;28;20015;-80
2022/08/17 09:46:50;;;;;;;;;;;25.40;55.60;;;;;;5048435;28;19921;-81
2022/08/17 09:49:20;;;;;;;;;;;25.50;55.60;;;;;;5051684;28;19960;-81
2022/08/17 09:51:49;;;;;;;;;;;25.50;55.60;;;;;;5050847;28;19968;-81
2022/08/17 09:54:21;;;;;;;;;;;25.50;55.50;;;;;;5046287;28;20004;-81
2022/08/17 09:56:52;;;;;;;;;;;25.50;55.50;;;;;;5043643;28;19993;-81
2022/08/17 09:59:33;;;;;;;;;;;25.50;55.40;;;;;;5049777;28;19952;-81
2022/08/17 10:02:08;;;;;;;;;;;25.50;55.30;;;;;;5045464;28;19921;-80
2022/08/17 10:04:40;;;;;;;;;;;25.50;55.30;;;;;;5038819;28;19921;-79
2022/08/17 10:07:11;;;;;;;;;;;25.50;55.20;;;;;;5039709;28;19932;-79
2022/08/17 10:09:42;;;;;;;;;;;25.50;55.20;;;;;;5042480;28;20003;-79
2022/08/17 10:12:19;;;;;;;;;;;25.50;55.10;;;;;;5042067;28;19988;-79
2022/08/17 10:14:53;;;;;;;;;;;25.50;55.10;;;;;;5042475;28;19921;-79
2022/08/17 10:17:23;;;;;;;;;;;25.60;55.10;;;;;;5041651;28;19921;-79
2022/08/17 10:19:53;;;;;;;;;;;25.50;55.00;;;;;;5039993;28;20430;-79
2022/08/17 10:27:56;;;;;;;;;;;25.60;54.90;;;;;;5041589;28;19980;-79
2022/08/17 10:30:24;;;;;;;;;;;25.60;54.90;;;;;;5040758;28;20000;-79
2022/08/17 10:32:54;;;;;;;;;;;25.60;54.90;;;;;;5041010;28;20015;-79
2022/08/17 10:35:33;;;;;;;;;;;25.60;54.80;;;;;;5040323;28;19921;-79
2022/08/17 10:38:14;;;;;;;;;;;25.60;54.80;;;;;;5042000;28;20020;-79
2022/08/17 10:40:45;;;;;;;;;;;25.60;54.70;;;;;;5039685;28;20020;-79
2022/08/17 10:43:21;;;;;;;;;;;25.60;54.70;;;;;;5041285;28;20015;-79
2022/08/17 10:45:54;;;;;;;;;;;25.60;54.70;;;;;;5040845;28;19967;-79
2022/08/17 10:48:27;;;;;;;;;;;25.60;54.60;;;;;;5041329;28;19975;-79
2022/08/17 10:51:07;;;;;;;;;;;25.60;54.60;;;;;;5040390;28;20012;-79
2022/08/17 10:54:04;;;;;;;;;;;25.60;54.60;;;;;;5040535;28;20024;-79
2022/08/17 10:56:41;;;;;;;;;;;25.60;54.60;;;;;;4999538;28;20001;-79
2022/08/17 10:59:08;;;;;;;;;;;25.60;54.60;;;;;;5034980;28;19977;-79
2022/08/17 11:01:49;;;;;;;;;;;25.60;54.50;;;;;;5040605;28;20343;-79
2022/08/17 11:04:24;;;;;;;;;;;25.60;54.50;;;;;;5038161;28;20028;-79
2022/08/17 11:06:52;;;;;;;;;;;25.60;54.50;;;;;;5039477;28;19943;-79
2022/08/17 11:09:26;;;;;;;;;;;25.60;54.50;;;;;;5040393;28;20349;-79
2022/08/17 11:12:06;;;;;;;;;;;25.60;54.50;;;;;;5040418;28;19968;-79
2022/08/17 11:14:47;;;;;;;;;;;25.60;54.40;;;;;;5039884;28;20320;-79
2022/08/17 11:17:19;;;;;;;;;;;25.60;54.40;;;;;;5030247;28;20070;-79
2022/08/17 11:20:03;;;;;;;;;;;25.60;54.30;;;;;;5038610;28;20007;-79
2022/08/17 11:22:49;;;;;;;;;;;25.60;54.30;;;;;;5039310;28;19975;-79
2022/08/17 11:25:16;;;;;;;;;;;25.60;54.30;;;;;;5038806;28;19972;-79
2022/08/17 11:27:44;;;;;;;;;;;25.60;54.20;;;;;;5038301;28;20390;-79
2022/08/17 11:30:13;;;;;;;;;;;25.60;54.20;;;;;;5038497;28;20403;-79
2022/08/17 11:32:42;;;;;;;;;;;25.60;54.20;;;;;;5039244;28;19944;-79
2022/08/17 11:35:12;;;;;;;;;;;25.60;54.20;;;;;;5038568;28;19968;-80
2022/08/17 11:37:48;;;;;;;;;;;25.70;54.20;;;;;;5037347;28;20023;-78
2022/08/17 11:40:25;;;;;;;;;;;25.60;54.20;;;;;;5037640;28;19924;-78
2022/08/17 11:42:59;;;;;;;;;;;25.70;54.30;;;;;;5036047;28;20020;-78
2022/08/17 11:45:37;;;;;;;;;;;25.70;54.30;;;;;;5036311;28;19927;-78
2022/08/17 11:53:57;;;;;;;;;;;25.70;54.30;;;;;;5924604;22;20888;-80
2022/08/17 11:56:45;;;;;;;;;;;25.70;54.40;;;;;;5017056;28;19926;-77
2022/08/17 11:59:31;;;;;;;;;;;25.70;55.00;;;;;;5009922;28;19925;-77
2022/08/17 12:01:58;;;;;;;;;;;25.70;54.50;;;;;;5016256;28;19973;-77
2022/08/17 12:04:27;;;;;;;;;;;25.70;54.50;;;;;;5015993;28;20261;-77
2022/08/17 12:06:58;;;;;;;;;;;25.70;54.60;;;;;;5018444;28;19925;-77
2022/08/17 12:09:27;;;;;;;;;;;25.70;54.70;;;;;;5019145;28;20024;-77
2022/08/17 12:11:56;;;;;;;;;;;25.80;54.80;;;;;;5015701;28;19925;-78
2022/08/17 12:14:25;;;;;;;;;;;25.80;54.90;;;;;;5015752;28;19967;-77
2022/08/17 12:16:59;;;;;;;;;;;25.80;54.90;;;;;;5015066;28;20467;-77
2022/08/17 12:19:28;;;;;;;;;;;25.80;54.90;;;;;;5015533;28;19929;-75
2022/08/17 12:22:00;;;;;;;;;;;25.80;55.00;;;;;;5015079;28;19922;-75
2022/08/17 12:24:30;;;;;;;;;;;25.80;55.00;;;;;;5016312;28;19922;-73
2022/08/17 12:26:59;;;;;;;;;;;25.80;55.00;;;;;;5018974;28;19921;-73
2022/08/17 12:29:27;;;;;;;;;;;25.80;55.00;;;;;;5018186;28;19921;-73
2022/08/17 12:31:54;;;;;;;;;;;25.80;55.10;;;;;;5017630;28;19926;-75
2022/08/17 12:34:25;;;;;;;;;;;25.80;55.10;;;;;;5016919;28;19968;-74
2022/08/17 12:37:00;;;;;;;;;;;25.80;55.20;;;;;;5017230;28;19921;-74
2022/08/17 12:39:29;;;;;;;;;;;25.80;55.30;;;;;;5018344;28;19922;-75
2022/08/17 12:41:57;;;;;;;;;;;25.80;55.30;;;;;;5018353;28;19921;-77
2022/08/17 12:44:26;;;;;;;;;;;25.80;55.40;;;;;;5017915;28;19948;-77
2022/08/17 12:46:54;;;;;;;;;;;25.90;55.50;;;;;;5017834;28;20003;-77
2022/08/17 12:49:31;;;;;;;;;;;25.90;55.60;;;;;;5018764;28;20463;-79
2022/08/17 12:52:04;;;;;;;;;;;25.90;55.70;;;;;;5019030;28;19967;-79
2022/08/17 12:54:37;;;;;;;;;;;25.90;55.70;;;;;;5021500;28;19921;-79
2022/08/17 12:57:10;;;;;;;;;;;25.90;55.80;;;;;;5026521;28;19926;-79
2022/08/17 12:59:42;;;;;;;;;;;25.90;55.90;;;;;;5027138;28;19921;-79
2022/08/17 13:02:18;;;;;;;;;;;25.90;55.90;;;;;;5028909;28;19957;-79
2022/08/17 13:04:46;;;;;;;;;;;25.90;56.00;;;;;;5025464;28;19953;-79
2022/08/17 13:07:25;;;;;;;;;;;25.90;56.00;;;;;;5026685;28;19948;-79
2022/08/17 13:09:54;;;;;;;;;;;25.90;56.00;;;;;;5028387;28;19922;-79
2022/08/17 13:12:30;;;;;;;;;;;25.90;56.10;;;;;;5025142;28;20019;-78
2022/08/17 13:14:58;;;;;;;;;;;26.00;56.20;;;;;;5023692;28;19928;-79
2022/08/17 13:17:28;;;;;;;;;;;26.00;56.20;;;;;;5018438;28;20299;-77
2022/08/17 13:19:55;;;;;;;;;;;25.90;56.20;;;;;;5023104;28;19985;-79
2022/08/17 13:22:23;;;;;;;;;;;26.00;56.30;;;;;;5020712;28;20285;-79
2022/08/17 13:24:53;;;;;;;;;;;25.90;56.20;;;;;;5021707;28;19944;-80
2022/08/17 13:27:22;;;;;;;;;;;26.00;56.30;;;;;;5021664;28;19922;-80
2022/08/17 13:29:52;;;;;;;;;;;26.00;56.30;;;;;;5021948;28;20364;-80
2022/08/17 13:32:21;;;;;;;;;;;26.00;56.40;;;;;;5021711;28;19928;-80
2022/08/17 13:34:49;;;;;;;;;;;26.00;56.50;;;;;;5020707;28;19922;-81
2022/08/17 13:37:17;;;;;;;;;;;25.90;56.30;;;;;;5021646;28;19921;-78
2022/08/17 13:39:45;;;;;;;;;;;26.00;56.40;;;;;;5020394;28;19926;-77
2022/08/17 13:42:27;;;;;;;;;;;26.00;56.30;;;;;;5021802;28;19925;-78
2022/08/17 13:44:55;;;;;;;;;;;25.90;56.10;;;;;;5022971;28;20023;-77
2022/08/17 13:47:22;;;;;;;;;;;25.90;56.00;;;;;;5018901;28;19921;-77
2022/08/17 13:49:49;;;;;;;;;;;25.90;55.80;;;;;;5018481;28;20314;-78
2022/08/17 13:52:30;;;;;;;;;;;25.90;55.70;;;;;;5017781;28;20288;-77
2022/08/17 13:54:59;;;;;;;;;;;25.90;55.50;;;;;;5018089;28;20018;-77
2022/08/17 13:57:27;;;;;;;;;;;25.90;55.30;;;;;;5023497;28;19987;-78
2022/08/17 14:00:06;;;;;;;;;;;25.90;55.10;;;;;;5021726;28;19929;-76
2022/08/17 14:02:33;;;;;;;;;;;25.90;55.00;;;;;;5023500;28;19922;-76
2022/08/17 14:05:01;;;;;;;;;;;25.90;54.60;;;;;;5023802;28;19922;-77
2022/08/17 14:07:31;;;;;;;;;;;25.90;54.40;;;;;;5022926;28;19921;-78
2022/08/17 14:09:59;;;;;;;;;;;25.90;54.20;;;;;;5023394;28;19922;-78
2022/08/17 14:12:28;;;;;;;;;;;25.90;54.00;;;;;;5025208;28;20320;-79
2022/08/17 14:14:58;;;;;;;;;;;25.80;53.70;;;;;;5025450;28;19944;-80
2022/08/17 14:17:27;;;;;;;;;;;25.90;53.50;;;;;;5025841;28;19921;-79
2022/08/17 14:19:55;;;;;;;;;;;25.90;53.20;;;;;;5026318;28;19945;-79
2022/08/17 14:22:25;;;;;;;;;;;25.80;52.90;;;;;;5026066;28;19925;-79
2022/08/17 14:24:53;;;;;;;;;;;25.80;52.70;;;;;;5025407;28;19921;-79
2022/08/17 14:27:20;;;;;;;;;;;25.90;52.50;;;;;;5024936;28;19971;-79
2022/08/17 14:29:52;;;;;;;;;;;25.90;52.20;;;;;;5025756;28;19929;-80
2022/08/17 14:32:23;;;;;;;;;;;25.90;51.90;;;;;;5023961;28;19921;-79
2022/08/17 14:34:51;;;;;;;;;;;25.90;51.80;;;;;;5024155;28;19945;-79
2022/08/17 14:37:18;;;;;;;;;;;25.90;51.80;;;;;;5024342;28;19956;-79
2022/08/17 14:39:47;;;;;;;;;;;25.90;51.70;;;;;;5023487;28;19948;-79
2022/08/17 14:42:16;;;;;;;;;;;25.90;51.30;;;;;;5023321;28;19921;-78
2022/08/17 14:44:43;;;;;;;;;;;25.90;51.10;;;;;;5023687;28;20315;-78
2022/08/17 14:47:12;;;;;;;;;;;25.90;50.80;;;;;;5023698;28;19921;-78
2022/08/17 14:49:41;;;;;;;;;;;25.90;50.60;;;;;;5022341;28;19945;-78
2022/08/17 14:52:09;;;;;;;;;;;25.90;50.40;;;;;;5022574;28;20284;-78
2022/08/17 14:54:35;;;;;;;;;;;25.90;50.20;;;;;;5019261;28;19925;-79
2022/08/17 14:57:02;;;;;;;;;;;25.90;50.00;;;;;;5016489;28;19928;-78
2022/08/17 14:59:30;;;;;;;;;;;25.90;49.80;;;;;;5017329;28;20000;-76
2022/08/17 15:02:00;;;;;;;;;;;25.90;49.60;;;;;;5016692;28;19922;-77
2022/08/17 15:04:28;;;;;;;;;;;25.90;49.40;;;;;;4999149;28;19922;-79
2022/08/17 15:06:57;;;;;;;;;;;25.90;49.20;;;;;;5022555;28;19928;-79
2022/08/17 15:09:23;;;;;;;;;;;25.90;49.00;;;;;;5016990;28;20360;-79
2022/08/17 15:11:52;;;;;;;;;;;25.90;48.80;;;;;;5016333;28;20395;-78
2022/08/17 15:14:21;;;;;;;;;;;25.90;48.60;;;;;;5016491;28;19965;-78
2022/08/17 15:16:52;;;;;;;;;;;25.90;48.40;;;;;;5016819;28;20024;-78
2022/08/17 15:19:21;;;;;;;;;;;25.90;48.20;;;;;;5016654;28;19927;-79
2022/08/17 15:21:49;;;;;;;;;;;25.90;48.00;;;;;;5023637;28;19971;-79
2022/08/17 15:24:17;;;;;;;;;;;25.90;47.80;;;;;;5020090;28;20097;-79
2022/08/17 15:26:46;;;;;;;;;;;25.90;47.60;;;;;;5017300;28;19944;-78
2022/08/17 15:29:13;;;;;;;;;;;25.90;47.50;;;;;;4999827;28;19927;-77
2022/08/17 15:31:42;;;;;;;;;;;25.90;47.30;;;;;;5015492;28;19928;-77
2022/08/17 15:34:14;;;;;;;;;;;25.90;47.10;;;;;;5016624;28;19975;-79
2022/08/17 15:36:42;;;;;;;;;;;25.90;46.80;;;;;;5017501;28;19921;-79
2022/08/17 15:39:10;;;;;;;;;;;25.90;46.90;;;;;;5017682;28;19983;-79
2022/08/17 15:41:49;;;;;;;;;;;25.90;46.90;;;;;;5017474;28;19925;-79
2022/08/17 15:44:16;;;;;;;;;;;25.90;46.80;;;;;;5017222;28;20392;-79
2022/08/17 15:46:44;;;;;;;;;;;26.00;46.80;;;;;;5017230;28;19928;-79
2022/08/17 15:49:14;;;;;;;;;;;26.00;46.50;;;;;;5017571;28;20335;-79
2022/08/17 15:51:41;;;;;;;;;;;26.20;46.40;;;;;;5016566;28;19971;-79
2022/08/17 15:54:10;;;;;;;;;;;26.00;46.20;;;;;;5016740;28;19922;-79
2022/08/17 15:56:38;;;;;;;;;;;26.00;46.20;;;;;;5016376;28;19932;-79
2022/08/17 15:59:06;;;;;;;;;;;26.00;45.90;;;;;;5015497;28;20373;-77
2022/08/17 16:01:34;;;;;;;;;;;26.00;45.70;;;;;;5015350;28;19964;-77
2022/08/17 16:04:02;;;;;;;;;;;26.00;45.60;;;;;;5015427;28;19921;-77
2022/08/17 16:06:29;;;;;;;;;;;25.90;45.40;;;;;;5015256;28;19929;-79
2022/08/17 16:08:58;;;;;;;;;;;26.00;45.40;;;;;;5016250;28;19925;-78
2022/08/17 16:11:25;;;;;;;;;;;26.00;45.20;;;;;;5017314;28;19922;-81
2022/08/17 16:13:53;;;;;;;;;;;26.00;45.10;;;;;;5021096;28;19921;-78
2022/08/17 16:16:22;;;;;;;;;;;26.00;45.00;;;;;;5016828;28;20016;-77
2022/08/17 16:18:50;;;;;;;;;;;26.00;44.90;;;;;;5015147;28;20435;-78
2022/08/17 16:21:28;;;;;;;;;;;26.00;44.80;;;;;;5015069;28;19947;-79
2022/08/17 16:23:57;;;;;;;;;;;26.00;44.70;;;;;;5014884;28;19968;-78
2022/08/17 16:26:25;;;;;;;;;;;26.00;44.60;;;;;;5014844;28;19921;-77
2022/08/17 16:28:52;;;;;;;;;;;26.00;44.50;;;;;;5014872;28;20373;-77
2022/08/17 16:31:20;;;;;;;;;;;26.00;44.40;;;;;;5015099;28;19921;-78
2022/08/17 16:33:50;;;;;;;;;;;26.00;44.30;;;;;;5017727;28;19969;-78
2022/08/17 16:36:17;;;;;;;;;;;26.00;44.20;;;;;;5018625;28;19921;-78
2022/08/17 16:38:44;;;;;;;;;;;26.00;44.10;;;;;;5017827;28;20016;-78
2022/08/17 16:41:11;;;;;;;;;;;26.00;44.00;;;;;;5018490;28;19928;-78
2022/08/17 16:43:38;;;;;;;;;;;26.00;43.90;;;;;;5018971;28;19987;-78
2022/08/17 16:46:05;;;;;;;;;;;26.00;43.80;;;;;;5021631;28;20421;-81
2022/08/17 16:48:33;;;;;;;;;;;26.00;43.70;;;;;;5024627;28;19961;-80
2022/08/17 16:50:59;;;;;;;;;;;26.00;43.70;;;;;;5021548;28;19928;-81
2022/08/17 16:53:26;;;;;;;;;;;26.00;43.60;;;;;;5025071;28;19969;-80
2022/08/17 16:55:53;;;;;;;;;;;26.00;43.50;;;;;;5022308;28;19925;-79
2022/08/17 16:58:19;;;;;;;;;;;26.00;43.40;;;;;;5015798;28;20439;-77
2022/08/17 17:00:47;;;;;;;;;;;26.00;43.40;;;;;;5014632;28;19929;-77
2022/08/17 17:03:15;;;;;;;;;;;26.00;43.40;;;;;;5014718;28;19964;-78
2022/08/17 17:05:46;;;;;;;;;;;26.00;43.30;;;;;;5015448;28;19921;-78
2022/08/17 17:08:16;;;;;;;;;;;26.00;43.30;;;;;;5017387;28;19921;-78
2022/08/17 17:10:44;;;;;;;;;;;26.00;43.20;;;;;;5018965;28;20012;-78
2022/08/17 17:13:13;;;;;;;;;;;26.00;43.20;;;;;;5017096;28;19921;-79
2022/08/17 17:15:50;;;;;;;;;;;26.00;43.20;;;;;;5016151;28;20015;-78
2022/08/17 17:18:18;;;;;;;;;;;26.00;43.20;;;;;;5014573;28;19957;-78
2022/08/17 17:20:49;;;;;;;;;;;26.00;43.20;;;;;;5015331;28;19927;-79
2022/08/17 17:23:24;;;;;;;;;;;26.00;43.20;;;;;;5014370;28;20016;-78
2022/08/17 17:25:55;;;;;;;;;;;26.00;43.20;;;;;;5014215;28;19967;-77
2022/08/17 17:28:27;;;;;;;;;;;26.00;43.20;;;;;;5016844;28;20016;-79
2022/08/17 17:30:58;;;;;;;;;;;26.00;43.20;;;;;;5019008;28;20013;-79
2022/08/17 17:33:29;;;;;;;;;;;26.00;43.20;;;;;;5020384;28;20335;-79
2022/08/17 17:35:58;;;;;;;;;;;26.00;43.20;;;;;;5020390;28;19987;-78
2022/08/17 17:38:28;;;;;;;;;;;25.90;43.20;;;;;;5016045;28;20376;-77
2022/08/17 17:41:00;;;;;;;;;;;26.00;43.30;;;;;;5014418;28;20012;-77
2022/08/17 17:43:28;;;;;;;;;;;25.90;43.20;;;;;;5014041;28;19980;-78
2022/08/17 17:45:57;;;;;;;;;;;25.90;43.20;;;;;;5014246;28;19928;-79
2022/08/17 17:48:23;;;;;;;;;;;25.90;43.20;;;;;;5014085;28;19929;-77
2022/08/17 17:50:54;;;;;;;;;;;25.90;43.30;;;;;;5014108;28;20011;-77
2022/08/17 17:53:25;;;;;;;;;;;25.90;43.40;;;;;;5014183;28;19921;-78
2022/08/17 17:55:59;;;;;;;;;;;25.90;43.40;;;;;;5018032;28;19928;-78
2022/08/17 17:58:31;;;;;;;;;;;25.90;43.40;;;;;;5020750;28;19921;-79
2022/08/17 18:01:06;;;;;;;;;;;25.90;43.50;;;;;;5023823;28;20377;-79
2022/08/17 18:03:39;;;;;;;;;;;25.90;43.50;;;;;;5021715;28;19953;-78
2022/08/17 18:06:20;;;;;;;;;;;25.90;43.50;;;;;;5021292;28;19989;-78
2022/08/17 18:08:53;;;;;;;;;;;25.90;43.60;;;;;;5020402;28;20289;-78
2022/08/17 18:11:25;;;;;;;;;;;25.90;43.60;;;;;;5020803;28;19972;-78
2022/08/17 18:14:02;;;;;;;;;;;25.90;43.70;;;;;;5021481;28;19944;-78
2022/08/17 18:16:30;;;;;;;;;;;25.90;43.70;;;;;;5020219;28;19989;-81
2022/08/17 18:18:57;;;;;;;;;;;25.90;43.80;;;;;;5019557;28;19972;-80
2022/08/17 18:21:26;;;;;;;;;;;25.90;43.90;;;;;;5021094;28;19921;-81
2022/08/17 18:23:55;;;;;;;;;;;25.90;43.90;;;;;;5020675;28;19922;-81
2022/08/17 18:26:35;;;;;;;;;;;25.90;44.00;;;;;;5019923;28;19921;-80
2022/08/17 18:29:11;;;;;;;;;;;25.90;44.00;;;;;;5022593;28;19928;-81
2022/08/17 18:31:38;;;;;;;;;;;25.90;44.10;;;;;;5023139;28;19972;-79
2022/08/17 18:34:16;;;;;;;;;;;25.90;44.20;;;;;;5022787;28;19997;-79
2022/08/17 18:36:43;;;;;;;;;;;25.90;44.30;;;;;;5021916;28;20008;-78
2022/08/17 18:39:14;;;;;;;;;;;25.90;44.50;;;;;;5017418;28;20016;-76
2022/08/17 18:41:42;;;;;;;;;;;26.00;44.60;;;;;;5016965;28;20436;-77
2022/08/17 18:44:18;;;;;;;;;;;26.00;44.70;;;;;;5017267;28;20313;-77
2022/08/17 18:46:45;;;;;;;;;;;26.00;44.80;;;;;;5016763;28;20288;-76
2022/08/17 18:49:24;;;;;;;;;;;26.00;44.90;;;;;;5017125;28;19952;-76
2022/08/17 18:52:06;;;;;;;;;;;26.00;45.00;;;;;;5017205;28;19921;-76
2022/08/17 18:54:35;;;;;;;;;;;26.00;45.10;;;;;;5016807;28;19921;-77